Time;durP1;ratioP1;P1;durP2;ratioP2;P2;SDS_P1;SDS_P2;PMS_P1;PMS_P2;Temp;Humidity;BMP_temperature;BMP_pressure;BME280_temperature;BME280_humidity;BME280_pressure;Samples;Min_cycle;Max_cycle;Signal;HPM_P1;HPM_P2
2022/12/01 00:01:37;;;;;;;45.97;18.77;;;;;;;-1.22;100.00;101996.53;4963821;28;20214;-71
2022/12/01 00:04:04;;;;;;;42.63;17.07;;;;;;;-1.25;100.00;101999.84;4966154;28;20685;-71
2022/12/01 00:06:31;;;;;;;47.40;17.80;;;;;;;-1.21;100.00;101994.03;4965469;28;20650;-70
2022/12/01 00:11:41;;;;;;;38.53;15.77;;;;;;;-1.25;100.00;101986.13;4959042;28;20198;-70
2022/12/01 00:14:08;;;;;;;44.97;17.97;;;;;;;-1.18;100.00;101995.84;4969309;28;20755;-71
2022/12/01 00:16:35;;;;;;;52.67;17.40;;;;;;;-1.22;100.00;101987.16;4966778;28;20218;-72
2022/12/01 00:19:02;;;;;;;48.80;17.67;;;;;;;-1.29;100.00;101994.50;4970793;28;20639;-70
2022/12/01 00:21:30;;;;;;;42.40;16.63;;;;;;;-1.34;100.00;101984.03;4965590;28;20205;-70
2022/12/01 00:23:58;;;;;;;39.80;16.20;;;;;;;-1.34;100.00;101984.03;4965377;28;20190;-71
2022/12/01 00:26:26;;;;;;;43.63;17.63;;;;;;;-1.36;100.00;101981.41;4964915;28;21668;-71
2022/12/01 00:28:54;;;;;;;41.77;16.07;;;;;;;-1.35;100.00;101972.94;4964705;28;20195;-71
2022/12/01 00:31:21;;;;;;;51.10;17.73;;;;;;;-1.35;100.00;101980.63;4965727;28;20194;-72
2022/12/01 00:33:49;;;;;;;50.80;17.83;;;;;;;-1.34;100.00;101984.03;4966862;28;20189;-71
2022/12/01 00:36:15;;;;;;;48.63;16.87;;;;;;;-1.29;100.00;101979.16;4970826;28;20198;-69
2022/12/01 00:38:43;;;;;;;44.20;17.57;;;;;;;-1.27;100.00;101986.06;4964698;28;20217;-71
2022/12/01 00:41:09;;;;;;;39.13;16.07;;;;;;;-1.27;100.00;101985.19;4965162;28;20582;-71
2022/12/01 00:43:36;;;;;;;44.27;17.97;;;;;;;-1.31;100.00;101989.31;4966157;28;20202;-70
2022/12/01 00:46:03;;;;;;;49.70;18.77;;;;;;;-1.35;100.00;101985.75;4964938;28;20225;-71
2022/12/01 00:48:29;;;;;;;43.40;16.63;;;;;;;-1.31;100.00;101985.88;4965540;28;20205;-71
2022/12/01 00:50:56;;;;;;;40.63;16.53;;;;;;;-1.33;100.00;101978.13;4965585;28;20281;-72
2022/12/01 00:53:23;;;;;;;49.07;17.87;;;;;;;-1.38;100.00;101985.59;4968743;28;20382;-71
2022/12/01 00:55:52;;;;;;;41.23;16.87;;;;;;;-1.38;100.00;101984.72;4966466;28;20276;-71
2022/12/01 00:58:19;;;;;;;52.87;19.47;;;;;;;-1.41;100.00;101980.34;4970736;28;20213;-71
2022/12/01 01:00:45;;;;;;;53.50;18.00;;;;;;;-1.41;100.00;101979.47;4994887;28;20225;-70
2022/12/01 01:03:11;;;;;;;51.47;18.60;;;;;;;-1.45;100.00;101987.81;4964040;28;20202;-70
2022/12/01 01:05:39;;;;;;;41.93;17.20;;;;;;;-1.47;100.00;101987.75;4967943;28;20716;-70
2022/12/01 01:08:07;;;;;;;43.93;18.27;;;;;;;-1.49;100.00;101989.38;4967017;28;20222;-71
2022/12/01 01:10:33;;;;;;;39.10;16.67;;;;;;;-1.49;100.00;101989.38;4964119;28;20213;-72
2022/12/01 01:13:01;;;;;;;47.80;17.77;;;;;;;-1.52;100.00;101990.09;4972570;28;20792;-71
2022/12/01 01:15:27;;;;;;;46.93;18.47;;;;;;;-1.56;100.00;101995.03;4968096;28;20195;-71
2022/12/01 01:17:54;;;;;;;45.53;17.60;;;;;;;-1.55;100.00;101995.09;4971091;28;20218;-71
2022/12/01 01:20:20;;;;;;;47.00;17.70;;;;;;;-1.55;100.00;101999.31;4969976;28;20214;-72
2022/12/01 01:22:46;;;;;;;42.03;17.13;;;;;;;-1.51;100.00;101996.09;4967036;28;20231;-70
2022/12/01 01:25:13;;;;;;;38.60;17.97;;;;;;;-1.53;100.00;102003.72;4977486;28;20200;-71
2022/12/01 01:27:39;;;;;;;41.73;16.10;;;;;;;-1.47;100.00;101995.44;4969959;28;20471;-70
2022/12/01 01:30:08;;;;;;;40.20;17.03;;;;;;;-1.44;100.00;101992.13;4970237;28;20566;-70
2022/12/01 01:32:35;;;;;;;41.80;16.57;;;;;;;-1.46;100.00;101994.63;4964205;28;20213;-70
2022/12/01 01:35:02;;;;;;;51.93;18.13;;;;;;;-1.40;100.00;102002.56;4967163;28;20599;-69
2022/12/01 01:37:28;;;;;;;49.97;18.80;;;;;;;-1.44;100.00;102002.34;4972905;28;20766;-72
2022/12/01 01:39:54;;;;;;;50.17;18.70;;;;;;;-1.47;100.00;102003.09;4966553;28;20308;-72
2022/12/01 01:42:23;;;;;;;45.43;17.07;;;;;;;-1.45;100.00;101995.50;4962033;28;20202;-71
2022/12/01 01:44:52;;;;;;;43.80;17.63;;;;;;;-1.46;100.00;101996.28;4965628;28;20203;-70
2022/12/01 01:47:25;;;;;;;42.73;17.07;;;;;;;-1.43;100.00;101996.44;4969547;28;20301;-71
2022/12/01 01:49:53;;;;;;;45.37;18.33;;;;;;;-1.52;100.00;102002.88;4966228;28;20204;-70
2022/12/01 01:52:20;;;;;;;42.37;17.50;;;;;;;-1.50;100.00;101995.28;4961649;28;20198;-72
2022/12/01 01:54:50;;;;;;;45.97;17.47;;;;;;;-1.49;100.00;101991.94;4962809;28;20200;-71
2022/12/01 01:57:26;;;;;;;38.23;16.47;;;;;;;-1.48;100.00;101985.13;4965542;28;20511;-71
2022/12/01 01:59:55;;;;;;;42.03;16.33;;;;;;;-1.47;100.00;101984.34;4962840;28;20297;-71
2022/12/01 02:02:24;;;;;;;40.97;16.17;;;;;;;-1.50;100.00;101987.59;4964340;28;20201;-69
2022/12/01 02:04:55;;;;;;;40.60;16.73;;;;;;;-1.50;100.00;101996.97;4969054;28;20197;-70
2022/12/01 02:07:22;;;;;;;42.20;18.10;;;;;;;-1.46;100.00;101994.63;4964146;28;20486;-72
2022/12/01 02:09:48;;;;;;;38.60;17.13;;;;;;;-1.48;100.00;101995.34;4963973;28;20216;-72
2022/12/01 02:12:30;;;;;;;38.67;16.57;;;;;;;-1.45;100.00;101996.38;4960401;28;20206;-71
2022/12/01 02:15:12;;;;;;;38.77;17.10;;;;;;;-1.46;100.00;101991.19;4963180;28;20776;-70
2022/12/01 02:17:47;;;;;;;39.73;17.60;;;;;;;-1.48;100.00;101995.34;4962379;28;20636;-69
2022/12/01 02:20:58;;;;;;;42.50;16.70;;;;;;;-1.46;100.00;101989.53;4966364;28;20197;-70
2022/12/01 02:23:51;;;;;;;39.77;18.03;;;;;;;-1.50;100.00;101981.63;4950844;28;20202;-74
2022/12/01 02:26:33;;;;;;;44.27;17.50;;;;;;;-1.46;100.00;101988.63;4977294;28;20194;-73
2022/12/01 02:29:32;;;;;;;41.97;18.17;;;;;;;-1.43;100.00;101988.75;4963606;28;20277;-71
2022/12/01 02:32:10;;;;;;;42.63;19.43;;;;;;;-1.45;100.00;101990.38;4969957;28;20206;-70
2022/12/01 02:34:43;;;;;;;52.63;20.10;;;;;;;-1.48;100.00;101988.53;4981386;28;20686;-70
2022/12/01 02:37:18;;;;;;;44.97;18.17;;;;;;;-1.52;100.00;101982.41;4970899;28;20241;-72
2022/12/01 02:39:53;;;;;;;56.27;22.33;;;;;;;-1.55;100.00;101987.41;4982726;28;20208;-72
2022/12/01 02:45:13;;;;;;;56.07;22.10;;;;;;;-1.46;100.00;101983.50;4967066;28;20206;-70
2022/12/01 02:47:44;;;;;;;45.17;20.37;;;;;;;-1.50;100.00;101990.16;4968817;28;20224;-70
2022/12/01 02:50:12;;;;;;;41.10;19.17;;;;;;;-1.52;100.00;101990.09;4975869;28;20191;-72
2022/12/01 02:52:41;;;;;;;52.23;20.60;;;;;;;-1.56;100.00;101985.66;4970021;28;20204;-71
2022/12/01 02:55:09;;;;;;;47.93;19.50;;;;;;;-1.61;100.00;101982.00;4987029;28;20208;-70
2022/12/01 02:57:36;;;;;;;44.53;18.33;;;;;;;-1.61;100.00;101992.25;4985514;28;20272;-71
2022/12/01 03:00:05;;;;;;;46.43;19.87;;;;;;;-1.60;100.00;101985.44;4969716;28;20693;-70
2022/12/01 03:02:41;;;;;;;40.73;17.87;;;;;;;-1.60;100.00;101990.56;4981615;28;20206;-70
2022/12/01 03:05:18;;;;;;;43.13;18.83;;;;;;;-1.63;100.00;101986.19;4967345;28;20288;-72
2022/12/01 03:07:56;;;;;;;39.57;16.47;;;;;;;-1.58;100.00;101986.41;4965822;28;20233;-73
2022/12/01 03:10:29;;;;;;;47.73;19.37;;;;;;;-1.60;100.00;101986.34;4965360;28;20279;-71
2022/12/01 03:13:08;;;;;;;46.67;21.67;;;;;;;-1.61;100.00;101986.25;4971722;28;20204;-70
2022/12/01 03:15:39;;;;;;;48.00;18.50;;;;;;;-1.67;100.00;101983.41;4968064;28;20255;-71
2022/12/01 03:18:15;;;;;;;40.40;17.20;;;;;;;-1.60;100.00;101988.00;4966499;28;20226;-70
2022/12/01 03:20:48;;;;;;;38.03;18.13;;;;;;;-1.61;100.00;101984.56;4966025;28;20679;-72
2022/12/01 03:23:20;;;;;;;41.90;17.90;;;;;;;-1.60;100.00;101977.75;4968240;28;20202;-70
2022/12/01 03:25:51;;;;;;;44.17;21.07;;;;;;;-1.60;100.00;101980.31;4961463;28;20202;-70
2022/12/01 03:28:27;;;;;;;48.50;20.33;;;;;;;-1.65;100.00;101982.69;4966572;28;20589;-70
2022/12/01 03:30:57;;;;;;;52.83;21.20;;;;;;;-1.61;100.00;101982.00;4967754;28;20209;-70
2022/12/01 03:33:29;;;;;;;51.30;24.63;;;;;;;-1.63;100.00;101970.84;4965347;28;20684;-70
2022/12/01 03:36:01;;;;;;;47.70;19.77;;;;;;;-1.63;100.00;101985.31;4965256;28;20290;-70
2022/12/01 03:38:29;;;;;;;40.37;17.03;;;;;;;-1.62;100.00;101980.28;4970080;28;20210;-71
2022/12/01 03:40:59;;;;;;;43.77;18.70;;;;;;;-1.58;100.00;101983.84;4966766;28;20202;-71
2022/12/01 03:43:31;;;;;;;38.40;18.00;;;;;;;-1.55;100.00;101989.97;4966476;28;20198;-70
2022/12/01 03:46:03;;;;;;;40.63;17.67;;;;;;;-1.53;100.00;101992.56;4975266;28;20689;-70
2022/12/01 03:48:30;;;;;;;42.07;17.97;;;;;;;-1.54;100.00;101995.97;4966665;28;20198;-70
2022/12/01 03:51:05;;;;;;;38.90;16.37;;;;;;;-1.55;100.00;101995.09;4970896;28;20209;-70
2022/12/01 03:53:40;;;;;;;38.53;17.10;;;;;;;-1.53;100.00;101995.13;4965904;28;20198;-73
2022/12/01 03:56:07;;;;;;;39.87;17.07;;;;;;;-1.51;100.00;101993.56;4965145;28;20201;-70
2022/12/01 03:58:40;;;;;;;42.57;18.37;;;;;;;-1.49;100.00;102002.16;4968585;28;20384;-70
2022/12/01 04:01:07;;;;;;;37.23;16.77;;;;;;;-1.48;100.00;102003.03;4969943;28;20281;-73
2022/12/01 04:03:34;;;;;;;39.67;18.47;;;;;;;-1.45;100.00;102000.63;4965009;28;20190;-71
2022/12/01 04:06:02;;;;;;;48.07;19.40;;;;;;;-1.44;100.00;101997.22;4964996;28;20202;-70
2022/12/01 04:08:29;;;;;;;39.87;16.83;;;;;;;-1.44;100.00;102000.69;4965770;28;20213;-73
2022/12/01 04:10:57;;;;;;;39.37;17.80;;;;;;;-1.41;100.00;102007.63;4968302;28;20288;-70
2022/12/01 04:13:22;;;;;;;42.23;18.03;;;;;;;-1.40;100.00;102001.69;4951347;28;20681;-72
2022/12/01 04:15:50;;;;;;;39.23;16.70;;;;;;;-1.42;100.00;102009.31;4965173;28;20198;-72
2022/12/01 04:18:16;;;;;;;40.40;17.10;;;;;;;-1.41;100.00;102005.06;4968067;28;20249;-72
2022/12/01 04:20:43;;;;;;;42.70;17.83;;;;;;;-1.39;100.00;102006.91;4964832;28;20218;-71
2022/12/01 04:23:58;;;;;;;45.50;18.37;;;;;;;-1.39;100.00;102008.56;4965656;28;20534;-70
2022/12/01 04:25:58;;;;;;;38.70;16.97;;;;;;;-1.40;100.00;102005.13;4961975;28;20202;-70
2022/12/01 04:28:25;;;;;;;44.53;19.47;;;;;;;-1.37;100.00;102007.84;5006611;23;20659;-75
2022/12/01 04:30:51;;;;;;;41.93;18.17;;;;;;;-1.38;100.00;102006.06;4976315;28;20212;-74
2022/12/01 04:33:18;;;;;;;42.97;18.00;;;;;;;-1.36;100.00;102006.13;5000710;28;20277;-75
2022/12/01 04:35:44;;;;;;;43.07;18.40;;;;;;;-1.40;100.00;102005.13;4997762;28;20208;-73
2022/12/01 04:38:12;;;;;;;38.50;17.90;;;;;;;-1.40;100.00;101999.16;5002701;28;20227;-75
2022/12/01 04:40:39;;;;;;;43.13;17.83;;;;;;;-1.39;100.00;102003.44;4998001;28;20216;-74
2022/12/01 04:43:05;;;;;;;39.73;17.43;;;;;;;-1.38;100.00;102000.09;5001550;28;20677;-75
2022/12/01 04:45:32;;;;;;;39.67;17.00;;;;;;;-1.33;100.00;102001.16;4999632;28;20213;-74
2022/12/01 04:47:58;;;;;;;38.30;16.37;;;;;;;-1.31;100.00;102011.47;4999481;28;20224;-74
2022/12/01 04:50:25;;;;;;;45.03;20.33;;;;;;;-1.36;100.00;102006.13;4996315;28;20491;-73
2022/12/01 04:52:52;;;;;;;46.07;19.17;;;;;;;-1.37;100.00;102012.09;4993248;28;20197;-73
2022/12/01 04:55:21;;;;;;;46.13;18.20;;;;;;;-1.34;100.00;102007.97;4994842;28;20211;-73
2022/12/01 04:57:48;;;;;;;47.27;19.10;;;;;;;-1.33;100.00;102008.84;5000601;28;20790;-73
2022/12/01 05:00:15;;;;;;;44.93;18.43;;;;;;;-1.33;100.00;102007.16;4996838;28;20219;-76
2022/12/01 05:02:42;;;;;;;39.13;17.70;;;;;;;-1.36;100.00;102009.56;4995600;28;20196;-73
2022/12/01 05:05:09;;;;;;;47.33;19.50;;;;;;;-1.37;100.00;102006.97;5001125;28;20204;-75
2022/12/01 05:07:36;;;;;;;46.17;19.10;;;;;;;-1.36;100.00;102003.59;4999560;28;20569;-75
2022/12/01 05:10:03;;;;;;;40.70;17.17;;;;;;;-1.34;100.00;102005.41;4996401;28;20654;-75
2022/12/01 05:12:31;;;;;;;36.37;17.07;;;;;;;-1.36;100.00;102012.13;4996919;28;20207;-73
2022/12/01 05:14:57;;;;;;;42.03;17.27;;;;;;;-1.39;100.00;102004.34;4996102;28;20205;-75
2022/12/01 05:17:23;;;;;;;48.00;18.50;;;;;;;-1.38;100.00;102000.09;5001380;28;20421;-75
2022/12/01 05:22:34;;;;;;;42.07;17.20;;;;;;;-1.38;100.00;102000.94;4999462;28;20241;-73
2022/12/01 05:25:00;;;;;;;38.60;17.20;;;;;;;-1.41;100.00;102008.47;4997384;28;20219;-73
2022/12/01 05:27:27;;;;;;;38.87;16.90;;;;;;;-1.38;100.00;102011.19;5000356;28;20714;-75
2022/12/01 05:29:55;;;;;;;43.53;18.27;;;;;;;-1.38;100.00;102006.06;4998220;28;20201;-74
2022/12/01 05:32:21;;;;;;;40.63;16.87;;;;;;;-1.39;100.00;102009.44;4997058;28;20208;-75
2022/12/01 05:34:48;;;;;;;38.83;17.47;;;;;;;-1.36;100.00;102009.56;4997024;28;20189;-75
2022/12/01 05:37:14;;;;;;;40.77;17.30;;;;;;;-1.40;100.00;102015.38;4993493;28;20227;-73
2022/12/01 05:39:42;;;;;;;42.73;17.57;;;;;;;-1.37;100.00;102014.66;4997004;28;20265;-75
2022/12/01 05:42:08;;;;;;;41.30;18.23;;;;;;;-1.37;100.00;102012.94;4998339;28;20205;-73
2022/12/01 05:44:35;;;;;;;42.40;19.27;;;;;;;-1.41;100.00;102015.28;4996246;28;20200;-75
2022/12/01 05:47:03;;;;;;;39.30;17.97;;;;;;;-1.45;100.00;102015.97;4991377;28;20235;-73
2022/12/01 05:49:29;;;;;;;36.83;15.80;;;;;;;-1.45;100.00;102011.72;4998799;28;20200;-72
2022/12/01 05:51:55;;;;;;;45.23;18.57;;;;;;;-1.41;100.00;102020.41;5001557;28;20212;-74
2022/12/01 05:54:22;;;;;;;42.30;17.30;;;;;;;-1.44;100.00;102015.16;4996470;28;20196;-74
2022/12/01 05:56:48;;;;;;;40.73;17.60;;;;;;;-1.45;100.00;102021.94;4993667;28;20225;-74
2022/12/01 05:59:14;;;;;;;40.53;17.43;;;;;;;-1.45;100.00;102010.84;4995827;28;20221;-75
2022/12/01 06:01:41;;;;;;;46.90;17.90;;;;;;;-1.44;100.00;102003.25;4998191;28;20206;-74
2022/12/01 06:04:09;;;;;;;37.20;17.00;;;;;;;-1.42;100.00;102011.88;4994786;28;20206;-75
2022/12/01 06:06:35;;;;;;;36.33;16.87;;;;;;;-1.42;100.00;102011.88;5000254;28;20205;-75
2022/12/01 06:09:02;;;;;;;42.80;17.07;;;;;;;-1.44;100.00;102022.81;4992659;28;20201;-74
2022/12/01 06:11:29;;;;;;;38.83;16.20;;;;;;;-1.48;100.00;102023.50;4995592;28;20200;-75
2022/12/01 06:13:55;;;;;;;33.23;15.37;;;;;;;-1.51;100.00;102024.25;4991882;28;20203;-75
2022/12/01 06:16:22;;;;;;;41.47;17.70;;;;;;;-1.52;100.00;102017.38;4995358;28;21047;-75
2022/12/01 06:18:48;;;;;;;39.07;16.33;;;;;;;-1.56;100.00;102020.59;4995311;28;20217;-75
2022/12/01 06:21:16;;;;;;;44.50;17.70;;;;;;;-1.55;100.00;102030.00;4997114;28;20308;-74
2022/12/01 06:23:43;;;;;;;35.57;16.40;;;;;;;-1.54;100.00;102027.53;4993955;28;20233;-74
2022/12/01 06:26:09;;;;;;;39.83;16.30;;;;;;;-1.58;100.00;102035.00;4999824;28;20197;-73
2022/12/01 06:28:36;;;;;;;40.47;15.47;;;;;;;-1.57;100.00;102041.84;4998551;28;20303;-75
2022/12/01 06:31:02;;;;;;;39.00;16.87;;;;;;;-1.59;100.00;102043.47;4996459;28;20204;-74
2022/12/01 06:33:28;;;;;;;42.13;18.20;;;;;;;-1.54;100.00;102039.44;4994001;28;20288;-75
2022/12/01 06:35:58;;;;;;;36.60;16.63;;;;;;;-1.53;100.00;102047.19;4994003;28;20211;-74
2022/12/01 06:38:27;;;;;;;41.53;16.93;;;;;;;-1.55;100.00;102047.91;4995429;28;20224;-74
2022/12/01 06:40:53;;;;;;;46.87;18.50;;;;;;;-1.50;100.00;102040.47;4995779;28;20303;-75
2022/12/01 06:43:19;;;;;;;40.90;17.73;;;;;;;-1.55;100.00;102045.34;4998101;28;20669;-75
2022/12/01 06:45:46;;;;;;;41.43;18.37;;;;;;;-1.55;100.00;102051.38;4990964;28;20947;-75
2022/12/01 06:48:13;;;;;;;46.63;17.10;;;;;;;-1.53;100.00;102052.31;4993441;28;20317;-73
2022/12/01 06:50:39;;;;;;;44.67;18.30;;;;;;;-1.57;100.00;102045.28;4995575;28;20539;-74
2022/12/01 06:53:07;;;;;;;45.63;17.47;;;;;;;-1.62;100.00;102051.91;4994772;28;20647;-75
2022/12/01 06:55:36;;;;;;;43.73;18.03;;;;;;;-1.63;100.00;102052.69;5001471;28;20428;-74
2022/12/01 06:58:02;;;;;;;37.87;16.70;;;;;;;-1.57;100.00;102052.09;4996279;28;21314;-75
2022/12/01 07:00:29;;;;;;;40.60;16.93;;;;;;;-1.55;100.00;102053.94;4998414;28;20216;-74
2022/12/01 07:02:55;;;;;;;42.23;18.23;;;;;;;-1.56;100.00;102058.97;4992446;28;20209;-74
2022/12/01 07:05:22;;;;;;;42.40;16.33;;;;;;;-1.60;100.00;102057.06;4996782;28;20212;-75
2022/12/01 07:07:48;;;;;;;40.03;17.00;;;;;;;-1.57;100.00;102059.75;4992566;28;20283;-75
2022/12/01 07:10:15;;;;;;;40.23;17.17;;;;;;;-1.56;100.00;102064.09;4996450;28;20211;-75
2022/12/01 07:12:43;;;;;;;42.73;16.83;;;;;;;-1.55;100.00;102063.25;5002811;28;20669;-74
2022/12/01 07:15:10;;;;;;;44.50;17.43;;;;;;;-1.57;100.00;102058.06;4998378;28;20188;-73
2022/12/01 07:17:37;;;;;;;42.87;18.10;;;;;;;-1.60;100.00;102062.16;5001471;28;20232;-74
2022/12/01 07:20:04;;;;;;;42.10;18.63;;;;;;;-1.60;100.00;102073.31;4999911;28;20693;-75
2022/12/01 07:22:30;;;;;;;42.07;16.50;;;;;;;-1.61;100.00;102070.66;4997114;28;20592;-74
2022/12/01 07:24:57;;;;;;;46.33;18.00;;;;;;;-1.60;100.00;102074.97;5002688;28;20216;-75
2022/12/01 07:27:23;;;;;;;42.30;19.03;;;;;;;-1.59;100.00;102069.06;5025275;28;20228;-75
2022/12/01 07:29:51;;;;;;;45.37;18.73;;;;;;;-1.59;100.00;102066.50;5001091;28;20673;-75
2022/12/01 07:32:17;;;;;;;45.47;18.70;;;;;;;-1.60;100.00;102068.19;4999613;28;20212;-75
2022/12/01 07:34:43;;;;;;;42.60;17.63;;;;;;;-1.60;100.00;102075.88;5001395;28;20548;-74
2022/12/01 07:37:10;;;;;;;43.67;18.07;;;;;;;-1.64;100.00;102068.81;4998188;28;20232;-75
2022/12/01 07:39:36;;;;;;;42.33;18.00;;;;;;;-1.63;100.00;102067.16;4998067;28;20211;-76
2022/12/01 07:42:04;;;;;;;36.37;16.90;;;;;;;-1.60;100.00;102070.75;5000301;28;20580;-74
2022/12/01 07:44:30;;;;;;;40.53;16.87;;;;;;;-1.57;100.00;102068.31;5000003;28;20201;-74
2022/12/01 07:46:58;;;;;;;42.60;17.67;;;;;;;-1.60;100.00;102072.41;4994217;28;20228;-75
2022/12/01 07:49:24;;;;;;;46.50;19.43;;;;;;;-1.60;100.00;102065.63;4998002;28;20211;-75
2022/12/01 07:51:51;;;;;;;65.37;29.03;;;;;;;-1.60;100.00;102073.31;5000042;28;20200;-75
2022/12/01 07:54:19;;;;;;;51.53;21.37;;;;;;;-1.59;100.00;102074.16;5001625;28;20648;-76
2022/12/01 07:56:46;;;;;;;43.97;18.77;;;;;;;-1.62;100.00;102076.56;5004320;28;20704;-75
2022/12/01 07:59:12;;;;;;;41.97;19.13;;;;;;;-1.57;100.00;102067.44;4998255;28;20211;-73
2022/12/01 08:01:39;;;;;;;36.63;16.57;;;;;;;-1.57;100.00;102070.88;4999140;28;20221;-75
2022/12/01 08:04:06;;;;;;;45.80;17.47;;;;;;;-1.56;100.00;102064.97;5002000;28;20205;-75
2022/12/01 08:06:33;;;;;;;45.77;16.83;;;;;;;-1.56;100.00;102058.97;4995728;28;20197;-75
2022/12/01 08:08:59;;;;;;;43.47;18.20;;;;;;;-1.58;100.00;102068.25;4997284;28;20289;-74
2022/12/01 08:11:28;;;;;;;40.17;17.33;;;;;;;-1.58;100.00;102076.81;5002928;28;20205;-75
2022/12/01 08:13:55;;;;;;;43.67;18.97;;;;;;;-1.60;100.00;102074.97;5000658;28;20208;-75
2022/12/01 08:16:23;;;;;;;42.43;18.33;;;;;;;-1.63;100.00;102077.41;5002287;28;20667;-75
2022/12/01 08:18:50;;;;;;;45.17;18.03;;;;;;;-1.60;100.00;102075.88;4999966;28;20576;-74
2022/12/01 08:21:19;;;;;;;48.50;16.70;;;;;;;-1.60;100.00;102086.09;4995944;28;20681;-74
2022/12/01 08:23:46;;;;;;;45.17;18.20;;;;;;;-1.64;100.00;102081.63;5003999;28;20285;-75
2022/12/01 08:26:14;;;;;;;46.00;19.70;;;;;;;-1.62;100.00;102084.25;4999734;28;20205;-74
2022/12/01 08:28:41;;;;;;;47.53;18.90;;;;;;;-1.63;100.00;102079.97;4999697;28;20278;-75
2022/12/01 08:31:09;;;;;;;48.47;20.27;;;;;;;-1.60;100.00;102086.09;5002954;28;20739;-75
2022/12/01 08:33:38;;;;;;;47.23;18.00;;;;;;;-1.60;100.00;102082.63;4984217;28;20204;-75
2022/12/01 08:36:05;;;;;;;45.40;18.90;;;;;;;-1.60;100.00;102082.63;5012402;28;20205;-75
2022/12/01 08:38:33;;;;;;;45.43;17.77;;;;;;;-1.59;100.00;102081.84;5004381;28;20584;-75
2022/12/01 08:41:01;;;;;;;49.53;19.60;;;;;;;-1.58;100.00;102088.72;5000325;28;20209;-74
2022/12/01 08:43:28;;;;;;;46.40;19.47;;;;;;;-1.61;100.00;102086.00;4999571;28;20714;-75
2022/12/01 08:45:57;;;;;;;53.27;19.57;;;;;;;-1.59;100.00;102089.53;4996688;28;20733;-75
2022/12/01 08:48:24;;;;;;;46.87;19.00;;;;;;;-1.61;100.00;102092.00;4995990;28;20225;-75
2022/12/01 08:50:50;;;;;;;43.77;20.10;;;;;;;-1.58;100.00;102097.28;4999707;28;20229;-75
2022/12/01 08:53:17;;;;;;;43.70;18.93;;;;;;;-1.58;100.00;102096.41;5003197;28;20230;-75
2022/12/01 08:55:44;;;;;;;48.77;19.10;;;;;;;-1.58;100.00;102094.72;5002810;28;20390;-73
2022/12/01 08:58:11;;;;;;;47.13;19.10;;;;;;;-1.55;100.00;102094.88;5002208;28;20235;-75
2022/12/01 09:00:37;;;;;;;46.30;19.27;;;;;;;-1.51;100.00;102095.88;5002492;28;20219;-75
2022/12/01 09:03:03;;;;;;;45.90;20.33;;;;;;;-1.45;100.00;102103.81;4991089;28;20211;-74
2022/12/01 09:05:31;;;;;;;57.10;20.30;;;;;;;-1.45;100.00;102106.38;4998392;28;20204;-74
2022/12/01 09:10:38;;;;;;;53.77;22.63;;;;;;;-1.46;100.00;102101.19;4998823;28;20230;-75
2022/12/01 09:13:05;;;;;;;47.43;21.33;;;;;;;-1.38;100.00;102102.44;5002019;28;20225;-73
2022/12/01 09:15:32;;;;;;;50.50;21.20;;;;;;;-1.44;100.00;102103.03;4999597;28;20216;-74
2022/12/01 09:17:59;;;;;;;50.03;21.47;;;;;;;-1.47;100.00;102109.69;4998934;28;20230;-74
2022/12/01 09:20:25;;;;;;;57.40;21.53;;;;;;;-1.48;100.00;102100.25;5002353;28;20220;-75
2022/12/01 09:22:51;;;;;;;54.40;20.73;;;;;;;-1.49;100.00;102111.31;4994354;28;20665;-75
2022/12/01 09:25:18;;;;;;;48.13;21.23;;;;;;;-1.44;100.00;102110.72;4994621;28;20208;-74
2022/12/01 09:27:44;;;;;;;51.13;21.47;;;;;;;-1.41;100.00;102107.41;4997731;28;20229;-73
2022/12/01 09:30:13;;;;;;;49.70;21.47;;;;;;;-1.39;100.00;102100.66;4993952;28;20197;-74
2022/12/01 09:32:39;;;;;;;55.13;24.40;;;;;;;-1.39;100.00;102105.78;4995833;28;20203;-74
2022/12/01 09:35:06;;;;;;;52.97;21.80;;;;;;;-1.44;100.00;102099.56;5003040;28;20249;-74
2022/12/01 09:37:32;;;;;;;55.53;22.57;;;;;;;-1.39;100.00;102093.91;4999506;28;20761;-74
2022/12/01 09:39:59;;;;;;;49.30;20.50;;;;;;;-1.41;100.00;102086.94;5000359;28;20205;-74
2022/12/01 09:42:26;;;;;;;60.63;22.63;;;;;;;-1.39;100.00;102083.66;5003016;28;20224;-71
2022/12/01 09:44:54;;;;;;;51.17;22.17;;;;;;;-1.39;100.00;102087.88;4993716;28;20211;-73
2022/12/01 09:47:26;;;;;;;45.27;21.20;;;;;;;-1.38;100.00;102085.38;4999280;28;20767;-75
2022/12/01 09:49:57;;;;;;;48.23;21.83;;;;;;;-1.38;100.00;102077.72;4992977;28;20215;-74
2022/12/01 09:52:26;;;;;;;55.93;21.67;;;;;;;-1.32;100.00;102082.22;4998844;28;20288;-74
2022/12/01 09:54:54;;;;;;;45.60;22.27;;;;;;;-1.37;100.00;102084.59;4991867;28;20193;-74
2022/12/01 09:57:29;;;;;;;44.43;20.60;;;;;;;-1.34;100.00;102086.41;4998014;28;20238;-74
2022/12/01 09:59:57;;;;;;;48.50;21.07;;;;;;;-1.35;100.00;102084.69;5000090;28;20212;-74
2022/12/01 10:02:31;;;;;;;50.33;21.20;;;;;;;-1.26;100.00;102081.66;4993128;28;20224;-73
2022/12/01 10:05:00;;;;;;;49.40;20.60;;;;;;;-1.20;100.00;102077.66;5001622;28;20561;-74
2022/12/01 10:07:31;;;;;;;56.20;24.67;;;;;;;-1.15;100.00;102078.75;5000711;28;20526;-73
2022/12/01 10:10:01;;;;;;;58.90;23.80;;;;;;;-1.12;100.00;102079.72;5001060;28;20207;-74
2022/12/01 10:12:32;;;;;;;60.93;25.77;;;;;;;-1.10;100.00;102081.53;5004813;28;20331;-73
2022/12/01 10:15:13;;;;;;;62.50;28.00;;;;;;;-1.06;100.00;102078.28;4996098;28;20309;-73
2022/12/01 10:17:51;;;;;;;48.13;20.47;;;;;;;-1.12;100.00;102077.16;5001203;28;20230;-72
2022/12/01 10:20:27;;;;;;;51.33;21.10;;;;;;;-1.07;100.00;102076.56;5000114;28;20653;-74
2022/12/01 10:23:13;;;;;;;47.93;19.30;;;;;;;-1.07;100.00;102068.88;5000307;28;20565;-74
2022/12/01 10:25:50;;;;;;;46.17;20.23;;;;;;;-1.08;100.00;102071.38;4993486;28;20830;-73
2022/12/01 10:28:53;;;;;;;41.33;20.10;;;;;;;-1.06;100.00;102067.19;5007150;23;20232;-74
2022/12/01 10:31:23;;;;;;;40.37;19.30;;;;;;;-1.09;100.00;102069.59;4978128;28;20198;-74
2022/12/01 10:33:59;;;;;;;44.60;20.50;;;;;;;-1.02;100.00;102063.94;4996176;28;20208;-74
2022/12/01 10:36:27;;;;;;;48.80;20.40;;;;;;;-1.07;100.00;102065.41;4977432;28;20248;-74
2022/12/01 10:38:54;;;;;;;44.90;20.87;;;;;;;-1.10;100.00;102066.16;5001273;28;20228;-75
2022/12/01 10:41:22;;;;;;;46.70;21.50;;;;;;;-1.09;100.00;102060.25;4978682;28;20524;-74
2022/12/01 10:43:51;;;;;;;42.97;21.03;;;;;;;-1.04;100.00;102058.78;4987556;28;20657;-74
2022/12/01 10:46:24;;;;;;;45.70;19.67;;;;;;;-1.08;100.00;102067.13;5003536;28;20699;-74
2022/12/01 10:48:56;;;;;;;49.47;21.13;;;;;;;-1.11;100.00;102054.16;5004248;28;20232;-75
2022/12/01 10:51:24;;;;;;;43.23;20.07;;;;;;;-1.07;100.00;102056.06;4996874;28;20224;-75
2022/12/01 10:53:57;;;;;;;46.57;20.37;;;;;;;-0.98;100.00;102050.50;4998081;28;20223;-75
2022/12/01 10:56:24;;;;;;;49.23;20.70;;;;;;;-1.04;100.00;102052.75;5003686;28;20274;-75
2022/12/01 10:58:53;;;;;;;44.40;20.37;;;;;;;-1.07;100.00;102050.97;5002295;28;20212;-74
2022/12/01 11:01:23;;;;;;;49.63;20.80;;;;;;;-1.02;100.00;102052.03;4983549;28;20212;-75
2022/12/01 11:03:53;;;;;;;46.17;20.77;;;;;;;-0.96;100.00;102049.72;5003320;28;20650;-75
2022/12/01 11:06:25;;;;;;;39.40;18.80;;;;;;;-0.91;100.00;102049.94;4985740;28;20212;-75
2022/12/01 11:08:55;;;;;;;41.90;18.93;;;;;;;-0.91;100.00;102047.38;4998369;28;20477;-74
2022/12/01 11:11:31;;;;;;;41.13;18.67;;;;;;;-0.81;100.00;102046.06;4995898;28;20700;-74
2022/12/01 11:14:02;;;;;;;42.67;17.47;;;;;;;-0.85;100.00;102041.66;4988781;28;20228;-77
2022/12/01 11:16:38;;;;;;;40.47;18.33;;;;;;;-0.81;100.00;102052.09;5002446;28;20627;-76
2022/12/01 11:19:18;;;;;;;39.43;17.53;;;;;;;-0.73;100.00;102042.16;5003683;28;20225;-79
2022/12/01 11:21:49;;;;;;;55.73;23.17;;;;;;;-0.72;100.00;102041.38;4979445;28;20217;-77